sensor_id;sensor_type;location;lat;lon;timestamp;P1;durP1;ratioP1;P2;durP2;ratioP2
63394;SDS011;49531;-34.520;150.798;2023-11-19T00:02:07;11.70;;;5.22;;
63394;SDS011;49531;-34.520;150.798;2023-11-19T00:04:38;7.93;;;3.40;;
63394;SDS011;49531;-34.520;150.798;2023-11-19T00:07:08;7.70;;;2.67;;
63394;SDS011;49531;-34.520;150.798;2023-11-19T00:09:36;5.93;;;2.40;;
63394;SDS011;49531;-34.520;150.798;2023-11-19T00:12:05;6.47;;;2.10;;
63394;SDS011;49531;-34.520;150.798;2023-11-19T00:14:39;4.60;;;1.88;;
63394;SDS011;49531;-34.520;150.798;2023-11-19T00:17:06;4.50;;;1.60;;
63394;SDS011;49531;-34.520;150.798;2023-11-19T00:19:33;4.63;;;1.50;;
63394;SDS011;49531;-34.520;150.798;2023-11-19T00:22:01;8.30;;;1.80;;
63394;SDS011;49531;-34.520;150.798;2023-11-19T00:24:29;5.55;;;1.60;;
63394;SDS011;49531;-34.520;150.798;2023-11-19T00:26:57;6.00;;;1.55;;
63394;SDS011;49531;-34.520;150.798;2023-11-19T00:29:24;5.75;;;1.50;;
63394;SDS011;49531;-34.520;150.798;2023-11-19T00:31:54;4.00;;;1.27;;
63394;SDS011;49531;-34.520;150.798;2023-11-19T00:34:44;7.22;;;1.45;;
63394;SDS011;49531;-34.520;150.798;2023-11-19T00:37:26;4.85;;;1.40;;
63394;SDS011;49531;-34.520;150.798;2023-11-19T00:39:59;7.10;;;1.60;;
63394;SDS011;49531;-34.520;150.798;2023-11-19T00:45:21;4.03;;;1.13;;
63394;SDS011;49531;-34.520;150.798;2023-11-19T00:47:49;4.43;;;1.20;;
63394;SDS011;49531;-34.520;150.798;2023-11-19T00:50:34;2.78;;;1.20;;
63394;SDS011;49531;-34.520;150.798;2023-11-19T00:53:12;5.03;;;1.30;;
63394;SDS011;49531;-34.520;150.798;2023-11-19T01:01:54;4.35;;;1.20;;
63394;SDS011;49531;-34.520;150.798;2023-11-19T01:04:34;6.72;;;1.50;;
63394;SDS011;49531;-34.520;150.798;2023-11-19T01:07:35;5.78;;;1.45;;
63394;SDS011;49531;-34.520;150.798;2023-11-19T01:10:11;5.18;;;1.50;;
63394;SDS011;49531;-34.520;150.798;2023-11-19T01:12:45;4.25;;;1.20;;
63394;SDS011;49531;-34.520;150.798;2023-11-19T01:15:19;5.15;;;1.50;;
63394;SDS011;49531;-34.520;150.798;2023-11-19T01:17:51;4.50;;;1.60;;
63394;SDS011;49531;-34.520;150.798;2023-11-19T01:20:21;3.83;;;1.23;;
63394;SDS011;49531;-34.520;150.798;2023-11-19T01:22:55;12.93;;;2.08;;
63394;SDS011;49531;-34.520;150.798;2023-11-19T01:25:30;5.75;;;2.88;;
63394;SDS011;49531;-34.520;150.798;2023-11-19T01:28:05;5.00;;;2.00;;
63394;SDS011;49531;-34.520;150.798;2023-11-19T01:30:55;7.68;;;2.03;;
63394;SDS011;49531;-34.520;150.798;2023-11-19T01:33:27;5.25;;;1.67;;
63394;SDS011;49531;-34.520;150.798;2023-11-19T01:35:59;7.20;;;1.50;;
63394;SDS011;49531;-34.520;150.798;2023-11-19T01:38:36;7.60;;;1.40;;
63394;SDS011;49531;-34.520;150.798;2023-11-19T01:41:11;3.70;;;1.30;;
63394;SDS011;49531;-34.520;150.798;2023-11-19T01:43:54;3.60;;;1.30;;
63394;SDS011;49531;-34.520;150.798;2023-11-19T01:46:26;3.83;;;1.42;;
63394;SDS011;49531;-34.520;150.798;2023-11-19T01:49:04;7.28;;;1.75;;
63394;SDS011;49531;-34.520;150.798;2023-11-19T01:51:54;4.90;;;1.30;;
63394;SDS011;49531;-34.520;150.798;2023-11-19T01:54:34;4.75;;;1.33;;
63394;SDS011;49531;-34.520;150.798;2023-11-19T02:04:02;9.45;;;1.50;;
63394;SDS011;49531;-34.520;150.798;2023-11-19T02:10:27;5.03;;;1.38;;
63394;SDS011;49531;-34.520;150.798;2023-11-19T02:12:57;4.68;;;1.38;;
63394;SDS011;49531;-34.520;150.798;2023-11-19T02:15:25;4.57;;;1.42;;
63394;SDS011;49531;-34.520;150.798;2023-11-19T02:23:55;6.28;;;1.20;;
63394;SDS011;49531;-34.520;150.798;2023-11-19T02:31:46;5.20;;;1.30;;
63394;SDS011;49531;-34.520;150.798;2023-11-19T02:34:13;5.07;;;1.38;;
63394;SDS011;49531;-34.520;150.798;2023-11-19T02:36:41;5.35;;;1.40;;
63394;SDS011;49531;-34.520;150.798;2023-11-19T02:39:08;7.30;;;1.40;;
63394;SDS011;49531;-34.520;150.798;2023-11-19T02:41:39;7.78;;;1.30;;
63394;SDS011;49531;-34.520;150.798;2023-11-19T02:44:06;7.53;;;1.55;;
63394;SDS011;49531;-34.520;150.798;2023-11-19T02:46:33;6.85;;;1.50;;
63394;SDS011;49531;-34.520;150.798;2023-11-19T02:49:00;5.68;;;1.40;;
63394;SDS011;49531;-34.520;150.798;2023-11-19T02:51:28;6.88;;;1.58;;
63394;SDS011;49531;-34.520;150.798;2023-11-19T02:53:55;6.75;;;1.52;;
63394;SDS011;49531;-34.520;150.798;2023-11-19T02:56:42;7.13;;;1.65;;
63394;SDS011;49531;-34.520;150.798;2023-11-19T02:59:13;8.20;;;1.60;;
63394;SDS011;49531;-34.520;150.798;2023-11-19T03:01:53;9.30;;;1.60;;
63394;SDS011;49531;-34.520;150.798;2023-11-19T03:04:20;7.90;;;1.33;;
63394;SDS011;49531;-34.520;150.798;2023-11-19T03:06:48;9.93;;;1.52;;
63394;SDS011;49531;-34.520;150.798;2023-11-19T03:09:16;11.55;;;1.88;;
63394;SDS011;49531;-34.520;150.798;2023-11-19T03:11:43;7.30;;;1.58;;
63394;SDS011;49531;-34.520;150.798;2023-11-19T03:14:11;5.50;;;1.27;;
63394;SDS011;49531;-34.520;150.798;2023-11-19T03:16:55;7.13;;;1.33;;
63394;SDS011;49531;-34.520;150.798;2023-11-19T03:19:26;8.68;;;1.58;;
63394;SDS011;49531;-34.520;150.798;2023-11-19T03:21:53;5.82;;;1.52;;
63394;SDS011;49531;-34.520;150.798;2023-11-19T03:24:20;5.88;;;1.48;;
63394;SDS011;49531;-34.520;150.798;2023-11-19T03:26:48;7.55;;;1.70;;
63394;SDS011;49531;-34.520;150.798;2023-11-19T03:29:18;9.05;;;1.60;;
63394;SDS011;49531;-34.520;150.798;2023-11-19T03:31:45;7.32;;;1.50;;
63394;SDS011;49531;-34.520;150.798;2023-11-19T03:34:12;6.40;;;1.50;;
63394;SDS011;49531;-34.520;150.798;2023-11-19T03:36:40;5.30;;;1.30;;
63394;SDS011;49531;-34.520;150.798;2023-11-19T03:39:24;5.28;;;1.50;;
63394;SDS011;49531;-34.520;150.798;2023-11-19T03:41:52;8.75;;;1.60;;
63394;SDS011;49531;-34.520;150.798;2023-11-19T03:44:19;5.88;;;1.48;;
63394;SDS011;49531;-34.520;150.798;2023-11-19T03:46:46;6.82;;;1.45;;
63394;SDS011;49531;-34.520;150.798;2023-11-19T03:49:14;7.15;;;1.65;;
63394;SDS011;49531;-34.520;150.798;2023-11-19T03:51:41;4.22;;;1.38;;
63394;SDS011;49531;-34.520;150.798;2023-11-19T03:54:08;8.68;;;1.70;;
63394;SDS011;49531;-34.520;150.798;2023-11-19T03:56:37;6.90;;;1.50;;
63394;SDS011;49531;-34.520;150.798;2023-11-19T03:59:04;9.02;;;1.67;;
63394;SDS011;49531;-34.520;150.798;2023-11-19T04:01:31;8.57;;;1.60;;
63394;SDS011;49531;-34.520;150.798;2023-11-19T04:03:58;7.00;;;1.52;;
63394;SDS011;49531;-34.520;150.798;2023-11-19T04:06:25;7.40;;;1.77;;
63394;SDS011;49531;-34.520;150.798;2023-11-19T04:08:53;7.00;;;1.50;;
63394;SDS011;49531;-34.520;150.798;2023-11-19T04:11:20;7.50;;;2.05;;
63394;SDS011;49531;-34.520;150.798;2023-11-19T04:13:47;9.38;;;1.80;;
63394;SDS011;49531;-34.520;150.798;2023-11-19T04:16:14;6.18;;;1.65;;
63394;SDS011;49531;-34.520;150.798;2023-11-19T04:18:41;11.55;;;1.88;;
63394;SDS011;49531;-34.520;150.798;2023-11-19T04:21:08;7.57;;;1.80;;
63394;SDS011;49531;-34.520;150.798;2023-11-19T04:23:36;9.82;;;1.90;;
63394;SDS011;49531;-34.520;150.798;2023-11-19T04:26:03;7.57;;;1.60;;
63394;SDS011;49531;-34.520;150.798;2023-11-19T04:28:32;8.00;;;1.55;;
63394;SDS011;49531;-34.520;150.798;2023-11-19T04:30:59;7.15;;;1.60;;
63394;SDS011;49531;-34.520;150.798;2023-11-19T04:33:26;6.63;;;1.70;;
63394;SDS011;49531;-34.520;150.798;2023-11-19T04:35:53;12.65;;;1.80;;
63394;SDS011;49531;-34.520;150.798;2023-11-19T04:38:20;7.55;;;1.60;;
63394;SDS011;49531;-34.520;150.798;2023-11-19T04:40:47;9.35;;;1.70;;
63394;SDS011;49531;-34.520;150.798;2023-11-19T04:43:15;7.78;;;1.75;;
63394;SDS011;49531;-34.520;150.798;2023-11-19T04:45:42;9.30;;;1.70;;
63394;SDS011;49531;-34.520;150.798;2023-11-19T04:48:09;7.82;;;1.60;;
63394;SDS011;49531;-34.520;150.798;2023-11-19T04:50:38;8.98;;;2.08;;
63394;SDS011;49531;-34.520;150.798;2023-11-19T04:53:05;6.97;;;1.60;;
63394;SDS011;49531;-34.520;150.798;2023-11-19T04:55:32;7.63;;;1.77;;
63394;SDS011;49531;-34.520;150.798;2023-11-19T04:57:59;9.02;;;1.83;;
63394;SDS011;49531;-34.520;150.798;2023-11-19T05:00:26;9.30;;;1.70;;
63394;SDS011;49531;-34.520;150.798;2023-11-19T05:02:53;7.18;;;1.80;;
63394;SDS011;49531;-34.520;150.798;2023-11-19T05:05:20;7.78;;;1.80;;
63394;SDS011;49531;-34.520;150.798;2023-11-19T05:07:48;5.85;;;1.60;;
63394;SDS011;49531;-34.520;150.798;2023-11-19T05:10:15;8.77;;;1.70;;
63394;SDS011;49531;-34.520;150.798;2023-11-19T05:12:42;7.90;;;1.70;;
63394;SDS011;49531;-34.520;150.798;2023-11-19T05:15:09;8.00;;;1.50;;
63394;SDS011;49531;-34.520;150.798;2023-11-19T05:17:37;7.95;;;1.60;;
63394;SDS011;49531;-34.520;150.798;2023-11-19T05:20:05;7.25;;;1.70;;
63394;SDS011;49531;-34.520;150.798;2023-11-19T05:22:41;8.38;;;1.70;;
63394;SDS011;49531;-34.520;150.798;2023-11-19T05:25:09;9.13;;;1.70;;
63394;SDS011;49531;-34.520;150.798;2023-11-19T05:27:37;7.10;;;1.90;;
63394;SDS011;49531;-34.520;150.798;2023-11-19T05:30:04;8.60;;;1.58;;
63394;SDS011;49531;-34.520;150.798;2023-11-19T05:32:36;7.78;;;1.85;;
63394;SDS011;49531;-34.520;150.798;2023-11-19T05:35:03;8.25;;;1.95;;
63394;SDS011;49531;-34.520;150.798;2023-11-19T05:37:31;9.10;;;1.70;;
63394;SDS011;49531;-34.520;150.798;2023-11-19T05:40:02;9.85;;;1.77;;
63394;SDS011;49531;-34.520;150.798;2023-11-19T05:42:32;6.40;;;1.80;;
63394;SDS011;49531;-34.520;150.798;2023-11-19T05:44:59;7.72;;;1.58;;
63394;SDS011;49531;-34.520;150.798;2023-11-19T05:47:26;8.90;;;2.10;;
63394;SDS011;49531;-34.520;150.798;2023-11-19T05:49:53;7.70;;;1.63;;
63394;SDS011;49531;-34.520;150.798;2023-11-19T05:52:20;8.50;;;1.80;;
63394;SDS011;49531;-34.520;150.798;2023-11-19T05:54:48;10.60;;;1.70;;
63394;SDS011;49531;-34.520;150.798;2023-11-19T05:57:18;10.45;;;2.17;;
63394;SDS011;49531;-34.520;150.798;2023-11-19T06:02:18;7.50;;;1.80;;
63394;SDS011;49531;-34.520;150.798;2023-11-19T06:04:45;13.70;;;2.00;;
63394;SDS011;49531;-34.520;150.798;2023-11-19T06:07:13;9.23;;;1.98;;
63394;SDS011;49531;-34.520;150.798;2023-11-19T06:09:41;9.05;;;1.83;;
63394;SDS011;49531;-34.520;150.798;2023-11-19T06:12:08;7.80;;;1.80;;
63394;SDS011;49531;-34.520;150.798;2023-11-19T06:14:35;12.85;;;2.00;;
63394;SDS011;49531;-34.520;150.798;2023-11-19T06:17:02;7.60;;;1.83;;
63394;SDS011;49531;-34.520;150.798;2023-11-19T06:19:30;10.25;;;1.90;;
63394;SDS011;49531;-34.520;150.798;2023-11-19T06:21:58;10.48;;;1.92;;
63394;SDS011;49531;-34.520;150.798;2023-11-19T06:24:25;14.73;;;2.20;;
63394;SDS011;49531;-34.520;150.798;2023-11-19T06:26:52;9.43;;;1.95;;
63394;SDS011;49531;-34.520;150.798;2023-11-19T06:29:19;7.97;;;1.60;;
63394;SDS011;49531;-34.520;150.798;2023-11-19T06:31:47;5.30;;;1.67;;
63394;SDS011;49531;-34.520;150.798;2023-11-19T06:34:14;7.43;;;1.60;;
63394;SDS011;49531;-34.520;150.798;2023-11-19T06:36:41;8.10;;;1.90;;
63394;SDS011;49531;-34.520;150.798;2023-11-19T06:39:11;8.43;;;1.77;;
63394;SDS011;49531;-34.520;150.798;2023-11-19T06:41:38;6.25;;;1.48;;
63394;SDS011;49531;-34.520;150.798;2023-11-19T06:44:10;7.68;;;1.70;;
63394;SDS011;49531;-34.520;150.798;2023-11-19T06:46:37;6.35;;;1.60;;
63394;SDS011;49531;-34.520;150.798;2023-11-19T06:49:05;7.30;;;1.58;;
63394;SDS011;49531;-34.520;150.798;2023-11-19T06:51:33;7.30;;;1.92;;
63394;SDS011;49531;-34.520;150.798;2023-11-19T06:54:01;6.63;;;1.83;;
63394;SDS011;49531;-34.520;150.798;2023-11-19T06:56:28;5.55;;;1.50;;
63394;SDS011;49531;-34.520;150.798;2023-11-19T06:58:55;8.23;;;1.85;;
63394;SDS011;49531;-34.520;150.798;2023-11-19T07:01:22;7.65;;;1.80;;
63394;SDS011;49531;-34.520;150.798;2023-11-19T07:03:49;5.07;;;1.50;;
63394;SDS011;49531;-34.520;150.798;2023-11-19T07:06:16;4.43;;;1.60;;
63394;SDS011;49531;-34.520;150.798;2023-11-19T07:08:44;6.00;;;1.85;;
63394;SDS011;49531;-34.520;150.798;2023-11-19T07:11:11;8.75;;;1.95;;
63394;SDS011;49531;-34.520;150.798;2023-11-19T07:13:42;8.52;;;2.10;;
63394;SDS011;49531;-34.520;150.798;2023-11-19T07:16:11;7.10;;;1.90;;
63394;SDS011;49531;-34.520;150.798;2023-11-19T07:18:41;8.23;;;2.08;;
63394;SDS011;49531;-34.520;150.798;2023-11-19T07:21:09;8.60;;;1.77;;
63394;SDS011;49531;-34.520;150.798;2023-11-19T07:23:36;9.85;;;2.08;;
63394;SDS011;49531;-34.520;150.798;2023-11-19T07:26:06;6.80;;;1.80;;
63394;SDS011;49531;-34.520;150.798;2023-11-19T07:28:36;8.98;;;2.28;;
63394;SDS011;49531;-34.520;150.798;2023-11-19T07:31:05;9.32;;;1.98;;
63394;SDS011;49531;-34.520;150.798;2023-11-19T07:33:35;8.23;;;1.80;;
63394;SDS011;49531;-34.520;150.798;2023-11-19T07:36:03;8.30;;;1.98;;
63394;SDS011;49531;-34.520;150.798;2023-11-19T07:38:30;7.40;;;1.85;;
63394;SDS011;49531;-34.520;150.798;2023-11-19T07:40:57;7.13;;;1.90;;
63394;SDS011;49531;-34.520;150.798;2023-11-19T07:43:24;8.32;;;2.13;;
63394;SDS011;49531;-34.520;150.798;2023-11-19T07:45:51;10.73;;;2.10;;
63394;SDS011;49531;-34.520;150.798;2023-11-19T07:48:19;5.80;;;1.85;;
63394;SDS011;49531;-34.520;150.798;2023-11-19T07:50:49;7.97;;;2.00;;
63394;SDS011;49531;-34.520;150.798;2023-11-19T07:53:16;5.95;;;1.88;;
63394;SDS011;49531;-34.520;150.798;2023-11-19T07:55:44;7.95;;;1.98;;
63394;SDS011;49531;-34.520;150.798;2023-11-19T07:58:12;10.38;;;2.17;;
63394;SDS011;49531;-34.520;150.798;2023-11-19T08:00:39;7.47;;;2.00;;
63394;SDS011;49531;-34.520;150.798;2023-11-19T08:03:06;6.65;;;1.98;;
63394;SDS011;49531;-34.520;150.798;2023-11-19T08:05:34;8.48;;;1.90;;
63394;SDS011;49531;-34.520;150.798;2023-11-19T08:08:01;7.70;;;2.00;;
63394;SDS011;49531;-34.520;150.798;2023-11-19T08:10:28;8.05;;;2.00;;
63394;SDS011;49531;-34.520;150.798;2023-11-19T08:12:55;8.32;;;1.95;;
63394;SDS011;49531;-34.520;150.798;2023-11-19T08:15:22;9.02;;;1.95;;
63394;SDS011;49531;-34.520;150.798;2023-11-19T08:17:49;8.52;;;1.90;;
63394;SDS011;49531;-34.520;150.798;2023-11-19T08:20:16;5.80;;;1.95;;
63394;SDS011;49531;-34.520;150.798;2023-11-19T08:22:44;7.47;;;2.22;;
63394;SDS011;49531;-34.520;150.798;2023-11-19T08:25:11;6.25;;;1.90;;
63394;SDS011;49531;-34.520;150.798;2023-11-19T08:27:38;6.32;;;1.90;;
63394;SDS011;49531;-34.520;150.798;2023-11-19T08:30:05;9.05;;;1.80;;
63394;SDS011;49531;-34.520;150.798;2023-11-19T08:32:34;7.70;;;2.03;;
63394;SDS011;49531;-34.520;150.798;2023-11-19T08:35:01;6.78;;;1.80;;
63394;SDS011;49531;-34.520;150.798;2023-11-19T08:37:28;6.53;;;1.85;;
63394;SDS011;49531;-34.520;150.798;2023-11-19T08:39:55;9.52;;;2.20;;
63394;SDS011;49531;-34.520;150.798;2023-11-19T08:42:22;8.00;;;2.00;;
63394;SDS011;49531;-34.520;150.798;2023-11-19T08:44:49;7.55;;;2.00;;
63394;SDS011;49531;-34.520;150.798;2023-11-19T08:47:20;8.02;;;2.38;;
63394;SDS011;49531;-34.520;150.798;2023-11-19T08:49:50;6.45;;;1.88;;
63394;SDS011;49531;-34.520;150.798;2023-11-19T08:52:18;7.45;;;1.95;;
63394;SDS011;49531;-34.520;150.798;2023-11-19T08:54:45;7.65;;;2.08;;
63394;SDS011;49531;-34.520;150.798;2023-11-19T08:57:12;6.95;;;2.10;;
63394;SDS011;49531;-34.520;150.798;2023-11-19T08:59:39;8.10;;;2.00;;
63394;SDS011;49531;-34.520;150.798;2023-11-19T09:02:13;6.38;;;1.92;;
63394;SDS011;49531;-34.520;150.798;2023-11-19T09:04:44;8.23;;;2.03;;
63394;SDS011;49531;-34.520;150.798;2023-11-19T09:09:41;7.90;;;2.00;;
63394;SDS011;49531;-34.520;150.798;2023-11-19T09:12:08;6.60;;;1.70;;
63394;SDS011;49531;-34.520;150.798;2023-11-19T09:14:35;8.35;;;1.90;;
63394;SDS011;49531;-34.520;150.798;2023-11-19T09:17:02;4.80;;;1.70;;
63394;SDS011;49531;-34.520;150.798;2023-11-19T09:19:31;7.03;;;1.90;;
63394;SDS011;49531;-34.520;150.798;2023-11-19T09:22:01;9.95;;;2.13;;
63394;SDS011;49531;-34.520;150.798;2023-11-19T09:24:31;7.72;;;2.05;;
63394;SDS011;49531;-34.520;150.798;2023-11-19T09:26:58;7.93;;;1.90;;
63394;SDS011;49531;-34.520;150.798;2023-11-19T09:29:25;5.53;;;1.70;;
63394;SDS011;49531;-34.520;150.798;2023-11-19T09:31:52;7.85;;;2.08;;
63394;SDS011;49531;-34.520;150.798;2023-11-19T09:34:19;5.30;;;1.80;;
63394;SDS011;49531;-34.520;150.798;2023-11-19T09:36:47;6.63;;;2.03;;
63394;SDS011;49531;-34.520;150.798;2023-11-19T09:42:10;7.45;;;2.15;;
63394;SDS011;49531;-34.520;150.798;2023-11-19T09:44:38;5.90;;;1.90;;
63394;SDS011;49531;-34.520;150.798;2023-11-19T09:47:07;7.75;;;2.10;;
63394;SDS011;49531;-34.520;150.798;2023-11-19T09:49:39;5.25;;;1.73;;
63394;SDS011;49531;-34.520;150.798;2023-11-19T09:52:06;6.82;;;2.00;;
63394;SDS011;49531;-34.520;150.798;2023-11-19T09:54:33;9.43;;;2.10;;
63394;SDS011;49531;-34.520;150.798;2023-11-19T09:57:01;6.40;;;2.10;;
63394;SDS011;49531;-34.520;150.798;2023-11-19T09:59:30;7.93;;;2.03;;
63394;SDS011;49531;-34.520;150.798;2023-11-19T10:01:57;5.22;;;1.83;;
63394;SDS011;49531;-34.520;150.798;2023-11-19T10:04:25;5.32;;;2.10;;
63394;SDS011;49531;-34.520;150.798;2023-11-19T10:06:55;7.03;;;2.03;;
63394;SDS011;49531;-34.520;150.798;2023-11-19T10:09:23;11.43;;;2.22;;
63394;SDS011;49531;-34.520;150.798;2023-11-19T10:11:50;6.10;;;1.67;;
63394;SDS011;49531;-34.520;150.798;2023-11-19T10:14:18;6.70;;;2.00;;
63394;SDS011;49531;-34.520;150.798;2023-11-19T10:16:49;8.05;;;2.13;;
63394;SDS011;49531;-34.520;150.798;2023-11-19T10:19:19;5.28;;;1.80;;
63394;SDS011;49531;-34.520;150.798;2023-11-19T10:21:47;7.50;;;1.80;;
63394;SDS011;49531;-34.520;150.798;2023-11-19T10:24:14;5.20;;;1.88;;
63394;SDS011;49531;-34.520;150.798;2023-11-19T10:26:41;8.73;;;2.17;;
63394;SDS011;49531;-34.520;150.798;2023-11-19T10:29:08;6.53;;;1.90;;
63394;SDS011;49531;-34.520;150.798;2023-11-19T10:31:38;5.65;;;2.10;;
63394;SDS011;49531;-34.520;150.798;2023-11-19T10:34:10;5.85;;;1.92;;
63394;SDS011;49531;-34.520;150.798;2023-11-19T10:36:51;8.70;;;1.90;;
63394;SDS011;49531;-34.520;150.798;2023-11-19T10:39:22;6.03;;;2.10;;
63394;SDS011;49531;-34.520;150.798;2023-11-19T10:41:50;5.97;;;1.95;;
63394;SDS011;49531;-34.520;150.798;2023-11-19T10:44:33;7.90;;;2.10;;
63394;SDS011;49531;-34.520;150.798;2023-11-19T10:47:05;4.57;;;1.85;;
63394;SDS011;49531;-34.520;150.798;2023-11-19T10:49:34;5.40;;;1.70;;
63394;SDS011;49531;-34.520;150.798;2023-11-19T10:52:01;4.85;;;2.00;;
63394;SDS011;49531;-34.520;150.798;2023-11-19T10:54:33;6.97;;;2.15;;
63394;SDS011;49531;-34.520;150.798;2023-11-19T10:57:01;5.72;;;1.90;;
63394;SDS011;49531;-34.520;150.798;2023-11-19T10:59:30;5.95;;;1.88;;
63394;SDS011;49531;-34.520;150.798;2023-11-19T11:01:58;7.90;;;1.90;;
63394;SDS011;49531;-34.520;150.798;2023-11-19T11:04:31;9.05;;;2.10;;
63394;SDS011;49531;-34.520;150.798;2023-11-19T11:07:05;6.53;;;2.15;;
63394;SDS011;49531;-34.520;150.798;2023-11-19T11:09:33;4.88;;;1.77;;
63394;SDS011;49531;-34.520;150.798;2023-11-19T11:12:00;6.30;;;1.88;;
63394;SDS011;49531;-34.520;150.798;2023-11-19T11:14:28;5.70;;;1.80;;
63394;SDS011;49531;-34.520;150.798;2023-11-19T11:16:56;5.75;;;1.83;;
63394;SDS011;49531;-34.520;150.798;2023-11-19T11:19:24;4.75;;;1.92;;
63394;SDS011;49531;-34.520;150.798;2023-11-19T11:21:53;4.82;;;1.60;;
63394;SDS011;49531;-34.520;150.798;2023-11-19T11:24:26;4.40;;;2.00;;
63394;SDS011;49531;-34.520;150.798;2023-11-19T11:30:18;9.05;;;1.95;;
63394;SDS011;49531;-34.520;150.798;2023-11-19T11:38:23;8.07;;;2.10;;
63394;SDS011;49531;-34.520;150.798;2023-11-19T11:43:47;6.95;;;1.92;;
63394;SDS011;49531;-34.520;150.798;2023-11-19T11:49:03;5.80;;;2.05;;
63394;SDS011;49531;-34.520;150.798;2023-11-19T11:54:25;7.72;;;2.15;;
63394;SDS011;49531;-34.520;150.798;2023-11-19T11:57:11;6.20;;;1.92;;
63394;SDS011;49531;-34.520;150.798;2023-11-19T12:02:09;5.43;;;1.70;;
63394;SDS011;49531;-34.520;150.798;2023-11-19T12:04:38;7.32;;;2.10;;
63394;SDS011;49531;-34.520;150.798;2023-11-19T12:07:07;6.47;;;1.85;;
63394;SDS011;49531;-34.520;150.798;2023-11-19T12:09:41;7.15;;;2.17;;
63394;SDS011;49531;-34.520;150.798;2023-11-19T12:12:23;6.45;;;1.70;;
63394;SDS011;49531;-34.520;150.798;2023-11-19T12:15:09;5.20;;;1.88;;
63394;SDS011;49531;-34.520;150.798;2023-11-19T12:17:37;7.13;;;2.10;;
63394;SDS011;49531;-34.520;150.798;2023-11-19T12:22:40;6.70;;;1.90;;
63394;SDS011;49531;-34.520;150.798;2023-11-19T12:25:08;3.83;;;1.70;;
63394;SDS011;49531;-34.520;150.798;2023-11-19T12:27:55;5.57;;;1.73;;
63394;SDS011;49531;-34.520;150.798;2023-11-19T12:30:22;6.00;;;1.80;;
63394;SDS011;49531;-34.520;150.798;2023-11-19T12:32:50;4.80;;;1.70;;
63394;SDS011;49531;-34.520;150.798;2023-11-19T12:35:21;6.38;;;2.10;;
63394;SDS011;49531;-34.520;150.798;2023-11-19T12:37:50;4.22;;;1.60;;
63394;SDS011;49531;-34.520;150.798;2023-11-19T12:40:18;5.22;;;1.80;;
63394;SDS011;49531;-34.520;150.798;2023-11-19T12:42:50;4.47;;;1.75;;
63394;SDS011;49531;-34.520;150.798;2023-11-19T12:45:21;5.50;;;1.77;;
63394;SDS011;49531;-34.520;150.798;2023-11-19T12:47:49;5.15;;;1.95;;
63394;SDS011;49531;-34.520;150.798;2023-11-19T12:50:19;5.72;;;1.83;;
63394;SDS011;49531;-34.520;150.798;2023-11-19T12:52:56;5.57;;;1.87;;
63394;SDS011;49531;-34.520;150.798;2023-11-19T12:55:24;4.80;;;1.80;;
63394;SDS011;49531;-34.520;150.798;2023-11-19T12:57:53;3.83;;;1.42;;
63394;SDS011;49531;-34.520;150.798;2023-11-19T13:00:24;4.68;;;1.90;;
63394;SDS011;49531;-34.520;150.798;2023-11-19T13:02:53;5.00;;;1.70;;
63394;SDS011;49531;-34.520;150.798;2023-11-19T13:05:24;5.63;;;1.90;;
63394;SDS011;49531;-34.520;150.798;2023-11-19T13:08:08;4.38;;;1.80;;
63394;SDS011;49531;-34.520;150.798;2023-11-19T13:10:50;5.55;;;1.80;;
63394;SDS011;49531;-34.520;150.798;2023-11-19T13:13:21;5.78;;;1.75;;
63394;SDS011;49531;-34.520;150.798;2023-11-19T13:15:48;5.35;;;1.80;;
63394;SDS011;49531;-34.520;150.798;2023-11-19T13:18:16;4.72;;;1.60;;
63394;SDS011;49531;-34.520;150.798;2023-11-19T13:20:43;6.15;;;1.80;;
63394;SDS011;49531;-34.520;150.798;2023-11-19T13:23:10;5.40;;;1.80;;
63394;SDS011;49531;-34.520;150.798;2023-11-19T13:25:37;5.85;;;1.90;;
63394;SDS011;49531;-34.520;150.798;2023-11-19T13:28:07;4.82;;;1.80;;
63394;SDS011;49531;-34.520;150.798;2023-11-19T13:30:35;4.95;;;1.90;;
63394;SDS011;49531;-34.520;150.798;2023-11-19T13:33:02;4.45;;;1.65;;
63394;SDS011;49531;-34.520;150.798;2023-11-19T13:35:29;4.63;;;1.70;;
63394;SDS011;49531;-34.520;150.798;2023-11-19T13:37:56;4.50;;;1.80;;
63394;SDS011;49531;-34.520;150.798;2023-11-19T13:40:23;5.13;;;1.73;;
63394;SDS011;49531;-34.520;150.798;2023-11-19T13:42:50;4.93;;;1.75;;
63394;SDS011;49531;-34.520;150.798;2023-11-19T13:45:17;4.85;;;1.65;;
63394;SDS011;49531;-34.520;150.798;2023-11-19T13:47:46;6.03;;;1.90;;
63394;SDS011;49531;-34.520;150.798;2023-11-19T13:50:14;7.15;;;1.80;;
63394;SDS011;49531;-34.520;150.798;2023-11-19T13:52:45;4.80;;;1.88;;
63394;SDS011;49531;-34.520;150.798;2023-11-19T13:55:13;4.75;;;1.70;;
63394;SDS011;49531;-34.520;150.798;2023-11-19T13:57:41;6.03;;;1.90;;
63394;SDS011;49531;-34.520;150.798;2023-11-19T14:00:09;5.93;;;1.90;;
63394;SDS011;49531;-34.520;150.798;2023-11-19T14:02:40;7.90;;;1.90;;
63394;SDS011;49531;-34.520;150.798;2023-11-19T14:05:07;7.18;;;2.08;;
63394;SDS011;49531;-34.520;150.798;2023-11-19T14:07:38;6.13;;;2.00;;
63394;SDS011;49531;-34.520;150.798;2023-11-19T14:10:06;6.80;;;1.95;;
63394;SDS011;49531;-34.520;150.798;2023-11-19T14:12:40;4.32;;;2.00;;
63394;SDS011;49531;-34.520;150.798;2023-11-19T14:15:08;5.07;;;1.98;;
63394;SDS011;49531;-34.520;150.798;2023-11-19T14:17:37;5.40;;;2.08;;
63394;SDS011;49531;-34.520;150.798;2023-11-19T14:20:05;6.30;;;2.08;;
63394;SDS011;49531;-34.520;150.798;2023-11-19T14:22:45;4.55;;;1.90;;
63394;SDS011;49531;-34.520;150.798;2023-11-19T14:25:17;10.02;;;2.38;;
63394;SDS011;49531;-34.520;150.798;2023-11-19T14:27:44;8.27;;;2.47;;
63394;SDS011;49531;-34.520;150.798;2023-11-19T14:30:12;9.73;;;2.30;;
63394;SDS011;49531;-34.520;150.798;2023-11-19T14:32:40;7.72;;;2.17;;
63394;SDS011;49531;-34.520;150.798;2023-11-19T14:35:12;6.72;;;2.30;;
63394;SDS011;49531;-34.520;150.798;2023-11-19T14:37:39;7.25;;;2.22;;
63394;SDS011;49531;-34.520;150.798;2023-11-19T14:40:06;8.52;;;2.15;;
63394;SDS011;49531;-34.520;150.798;2023-11-19T14:42:37;8.00;;;2.40;;
63394;SDS011;49531;-34.520;150.798;2023-11-19T14:45:08;7.82;;;2.00;;
63394;SDS011;49531;-34.520;150.798;2023-11-19T14:47:37;7.80;;;2.40;;
63394;SDS011;49531;-34.520;150.798;2023-11-19T14:50:04;8.38;;;2.25;;
63394;SDS011;49531;-34.520;150.798;2023-11-19T14:52:32;7.30;;;2.08;;
63394;SDS011;49531;-34.520;150.798;2023-11-19T14:55:00;8.13;;;2.35;;
63394;SDS011;49531;-34.520;150.798;2023-11-19T14:57:28;6.95;;;2.42;;
63394;SDS011;49531;-34.520;150.798;2023-11-19T14:59:55;8.85;;;2.20;;
63394;SDS011;49531;-34.520;150.798;2023-11-19T15:02:22;7.78;;;2.00;;
63394;SDS011;49531;-34.520;150.798;2023-11-19T15:04:49;6.05;;;2.30;;
63394;SDS011;49531;-34.520;150.798;2023-11-19T15:07:16;7.35;;;2.30;;
63394;SDS011;49531;-34.520;150.798;2023-11-19T15:09:43;7.88;;;2.22;;
63394;SDS011;49531;-34.520;150.798;2023-11-19T15:12:11;7.38;;;2.13;;
63394;SDS011;49531;-34.520;150.798;2023-11-19T15:14:38;9.73;;;2.38;;
63394;SDS011;49531;-34.520;150.798;2023-11-19T15:17:05;5.85;;;1.80;;
63394;SDS011;49531;-34.520;150.798;2023-11-19T15:19:33;5.32;;;1.90;;
63394;SDS011;49531;-34.520;150.798;2023-11-19T15:22:00;7.30;;;2.17;;
63394;SDS011;49531;-34.520;150.798;2023-11-19T15:24:31;7.25;;;2.28;;